sensor_id;sensor_type;location;lat;lon;timestamp;P1;durP1;ratioP1;P2;durP2;ratioP2
22985;SDS011;11659;51.092;7.080;2022-09-21T00:01:12;3.40;;;2.50;;
22985;SDS011;11659;51.092;7.080;2022-09-21T00:03:39;3.33;;;2.27;;
22985;SDS011;11659;51.092;7.080;2022-09-21T00:06:06;3.63;;;2.20;;
22985;SDS011;11659;51.092;7.080;2022-09-21T00:08:34;2.90;;;1.90;;
22985;SDS011;11659;51.092;7.080;2022-09-21T00:11:02;3.47;;;2.20;;
22985;SDS011;11659;51.092;7.080;2022-09-21T00:13:30;3.47;;;2.10;;
22985;SDS011;11659;51.092;7.080;2022-09-21T00:15:57;2.47;;;2.00;;
22985;SDS011;11659;51.092;7.080;2022-09-21T00:18:24;2.60;;;2.03;;
22985;SDS011;11659;51.092;7.080;2022-09-21T00:20:51;2.47;;;1.97;;
22985;SDS011;11659;51.092;7.080;2022-09-21T00:23:17;2.63;;;2.10;;
22985;SDS011;11659;51.092;7.080;2022-09-21T00:25:43;2.57;;;2.00;;
22985;SDS011;11659;51.092;7.080;2022-09-21T00:28:10;3.70;;;1.97;;
22985;SDS011;11659;51.092;7.080;2022-09-21T00:30:37;2.30;;;1.90;;
22985;SDS011;11659;51.092;7.080;2022-09-21T00:33:03;2.27;;;2.00;;
22985;SDS011;11659;51.092;7.080;2022-09-21T00:35:29;2.87;;;1.93;;
22985;SDS011;11659;51.092;7.080;2022-09-21T00:37:58;2.50;;;2.10;;
22985;SDS011;11659;51.092;7.080;2022-09-21T00:40:25;3.87;;;2.20;;
22985;SDS011;11659;51.092;7.080;2022-09-21T00:42:51;2.83;;;1.90;;
22985;SDS011;11659;51.092;7.080;2022-09-21T00:45:18;3.10;;;2.00;;
22985;SDS011;11659;51.092;7.080;2022-09-21T00:47:47;2.43;;;1.97;;
22985;SDS011;11659;51.092;7.080;2022-09-21T00:50:16;3.77;;;2.07;;
22985;SDS011;11659;51.092;7.080;2022-09-21T00:52:46;2.70;;;1.80;;
22985;SDS011;11659;51.092;7.080;2022-09-21T00:55:18;2.37;;;1.97;;
22985;SDS011;11659;51.092;7.080;2022-09-21T00:57:47;2.37;;;2.17;;
22985;SDS011;11659;51.092;7.080;2022-09-21T01:00:18;2.97;;;2.10;;
22985;SDS011;11659;51.092;7.080;2022-09-21T01:02:44;2.97;;;1.90;;
22985;SDS011;11659;51.092;7.080;2022-09-21T01:05:10;2.23;;;1.90;;
22985;SDS011;11659;51.092;7.080;2022-09-21T01:07:37;3.17;;;1.93;;
22985;SDS011;11659;51.092;7.080;2022-09-21T01:10:07;1.97;;;1.70;;
22985;SDS011;11659;51.092;7.080;2022-09-21T01:12:46;2.47;;;2.10;;
22985;SDS011;11659;51.092;7.080;2022-09-21T01:15:25;3.13;;;1.90;;
22985;SDS011;11659;51.092;7.080;2022-09-21T01:17:58;2.83;;;2.10;;
22985;SDS011;11659;51.092;7.080;2022-09-21T01:20:38;1.87;;;1.70;;
22985;SDS011;11659;51.092;7.080;2022-09-21T01:23:23;3.10;;;2.10;;
22985;SDS011;11659;51.092;7.080;2022-09-21T01:26:12;3.03;;;2.00;;
22985;SDS011;11659;51.092;7.080;2022-09-21T01:28:55;2.90;;;1.83;;
22985;SDS011;11659;51.092;7.080;2022-09-21T01:31:37;3.37;;;1.70;;
22985;SDS011;11659;51.092;7.080;2022-09-21T01:34:06;3.87;;;2.10;;
22985;SDS011;11659;51.092;7.080;2022-09-21T01:36:40;2.90;;;1.97;;
22985;SDS011;11659;51.092;7.080;2022-09-21T01:39:08;3.83;;;2.47;;
22985;SDS011;11659;51.092;7.080;2022-09-21T01:41:37;2.90;;;2.00;;
22985;SDS011;11659;51.092;7.080;2022-09-21T01:44:09;3.67;;;1.90;;
22985;SDS011;11659;51.092;7.080;2022-09-21T01:46:38;2.40;;;1.93;;
22985;SDS011;11659;51.092;7.080;2022-09-21T01:49:05;2.13;;;1.90;;
22985;SDS011;11659;51.092;7.080;2022-09-21T01:51:35;2.13;;;1.80;;
22985;SDS011;11659;51.092;7.080;2022-09-21T01:54:08;3.03;;;2.03;;
22985;SDS011;11659;51.092;7.080;2022-09-21T01:56:39;3.10;;;1.87;;
22985;SDS011;11659;51.092;7.080;2022-09-21T01:59:12;3.43;;;2.20;;
22985;SDS011;11659;51.092;7.080;2022-09-21T02:01:44;1.97;;;1.77;;
22985;SDS011;11659;51.092;7.080;2022-09-21T02:04:13;2.17;;;1.70;;
22985;SDS011;11659;51.092;7.080;2022-09-21T02:06:40;1.90;;;1.70;;
22985;SDS011;11659;51.092;7.080;2022-09-21T02:09:09;4.43;;;1.70;;
22985;SDS011;11659;51.092;7.080;2022-09-21T02:11:36;2.30;;;1.80;;
22985;SDS011;11659;51.092;7.080;2022-09-21T02:14:06;2.40;;;1.80;;
22985;SDS011;11659;51.092;7.080;2022-09-21T02:16:36;2.87;;;1.70;;
22985;SDS011;11659;51.092;7.080;2022-09-21T02:19:14;2.77;;;2.10;;
22985;SDS011;11659;51.092;7.080;2022-09-21T02:21:49;2.47;;;1.53;;
22985;SDS011;11659;51.092;7.080;2022-09-21T02:24:23;2.63;;;2.00;;
22985;SDS011;11659;51.092;7.080;2022-09-21T02:27:00;1.97;;;1.70;;
22985;SDS011;11659;51.092;7.080;2022-09-21T02:29:31;2.60;;;1.97;;
22985;SDS011;11659;51.092;7.080;2022-09-21T02:32:06;1.97;;;1.77;;
22985;SDS011;11659;51.092;7.080;2022-09-21T02:34:38;1.70;;;1.60;;
22985;SDS011;11659;51.092;7.080;2022-09-21T02:37:10;2.27;;;1.67;;
22985;SDS011;11659;51.092;7.080;2022-09-21T02:39:45;3.33;;;1.73;;
22985;SDS011;11659;51.092;7.080;2022-09-21T02:42:21;2.00;;;1.60;;
22985;SDS011;11659;51.092;7.080;2022-09-21T02:44:54;2.27;;;1.90;;
22985;SDS011;11659;51.092;7.080;2022-09-21T02:47:27;2.37;;;1.60;;
22985;SDS011;11659;51.092;7.080;2022-09-21T02:50:00;2.33;;;1.87;;
22985;SDS011;11659;51.092;7.080;2022-09-21T02:52:30;3.27;;;2.30;;
22985;SDS011;11659;51.092;7.080;2022-09-21T02:54:58;2.13;;;1.83;;
22985;SDS011;11659;51.092;7.080;2022-09-21T02:57:26;2.07;;;1.80;;
22985;SDS011;11659;51.092;7.080;2022-09-21T02:59:52;2.10;;;1.73;;
22985;SDS011;11659;51.092;7.080;2022-09-21T03:02:18;2.73;;;1.50;;
22985;SDS011;11659;51.092;7.080;2022-09-21T03:04:45;2.27;;;1.77;;
22985;SDS011;11659;51.092;7.080;2022-09-21T03:07:12;2.50;;;1.87;;
22985;SDS011;11659;51.092;7.080;2022-09-21T03:09:39;3.10;;;1.90;;
22985;SDS011;11659;51.092;7.080;2022-09-21T03:12:04;2.43;;;1.90;;
22985;SDS011;11659;51.092;7.080;2022-09-21T03:14:30;2.00;;;1.80;;
22985;SDS011;11659;51.092;7.080;2022-09-21T03:16:57;1.90;;;1.63;;
22985;SDS011;11659;51.092;7.080;2022-09-21T03:19:23;1.93;;;1.73;;
22985;SDS011;11659;51.092;7.080;2022-09-21T03:21:51;2.77;;;2.00;;
22985;SDS011;11659;51.092;7.080;2022-09-21T03:24:19;2.97;;;1.70;;
22985;SDS011;11659;51.092;7.080;2022-09-21T03:27:06;1.97;;;1.60;;
22985;SDS011;11659;51.092;7.080;2022-09-21T03:29:33;2.03;;;1.80;;
22985;SDS011;11659;51.092;7.080;2022-09-21T03:31:59;3.00;;;1.67;;
22985;SDS011;11659;51.092;7.080;2022-09-21T03:34:26;1.70;;;1.60;;
22985;SDS011;11659;51.092;7.080;2022-09-21T03:36:53;2.00;;;1.80;;
22985;SDS011;11659;51.092;7.080;2022-09-21T03:39:19;2.50;;;1.93;;
22985;SDS011;11659;51.092;7.080;2022-09-21T03:41:45;2.60;;;2.10;;
22985;SDS011;11659;51.092;7.080;2022-09-21T03:44:11;2.37;;;1.77;;
22985;SDS011;11659;51.092;7.080;2022-09-21T03:46:37;2.60;;;1.60;;
22985;SDS011;11659;51.092;7.080;2022-09-21T03:49:03;1.60;;;1.40;;
22985;SDS011;11659;51.092;7.080;2022-09-21T03:51:29;2.60;;;1.63;;
22985;SDS011;11659;51.092;7.080;2022-09-21T03:53:57;2.03;;;1.53;;
22985;SDS011;11659;51.092;7.080;2022-09-21T03:56:22;2.27;;;1.63;;
22985;SDS011;11659;51.092;7.080;2022-09-21T03:58:48;2.37;;;1.70;;
22985;SDS011;11659;51.092;7.080;2022-09-21T04:01:15;4.00;;;1.90;;
22985;SDS011;11659;51.092;7.080;2022-09-21T04:03:41;2.57;;;2.03;;
22985;SDS011;11659;51.092;7.080;2022-09-21T04:06:07;1.70;;;1.50;;
22985;SDS011;11659;51.092;7.080;2022-09-21T04:08:34;2.10;;;1.80;;
22985;SDS011;11659;51.092;7.080;2022-09-21T04:11:01;2.67;;;1.73;;
22985;SDS011;11659;51.092;7.080;2022-09-21T04:13:33;1.97;;;1.70;;
22985;SDS011;11659;51.092;7.080;2022-09-21T04:16:00;1.67;;;1.50;;
22985;SDS011;11659;51.092;7.080;2022-09-21T04:18:26;2.07;;;1.70;;
22985;SDS011;11659;51.092;7.080;2022-09-21T04:20:52;2.87;;;2.00;;
22985;SDS011;11659;51.092;7.080;2022-09-21T04:23:18;1.77;;;1.47;;
22985;SDS011;11659;51.092;7.080;2022-09-21T04:25:44;2.00;;;1.80;;
22985;SDS011;11659;51.092;7.080;2022-09-21T04:28:14;3.40;;;1.90;;
22985;SDS011;11659;51.092;7.080;2022-09-21T04:30:40;2.80;;;1.60;;
22985;SDS011;11659;51.092;7.080;2022-09-21T04:33:05;1.70;;;1.60;;
22985;SDS011;11659;51.092;7.080;2022-09-21T04:35:31;1.50;;;1.40;;
22985;SDS011;11659;51.092;7.080;2022-09-21T04:37:57;1.70;;;1.60;;
22985;SDS011;11659;51.092;7.080;2022-09-21T04:40:23;2.40;;;1.77;;
22985;SDS011;11659;51.092;7.080;2022-09-21T04:42:50;2.23;;;1.77;;
22985;SDS011;11659;51.092;7.080;2022-09-21T04:45:18;3.00;;;1.60;;
22985;SDS011;11659;51.092;7.080;2022-09-21T04:47:45;2.63;;;1.80;;
22985;SDS011;11659;51.092;7.080;2022-09-21T04:50:11;2.57;;;1.70;;
22985;SDS011;11659;51.092;7.080;2022-09-21T04:52:36;2.60;;;1.73;;
22985;SDS011;11659;51.092;7.080;2022-09-21T04:55:03;3.43;;;1.70;;
22985;SDS011;11659;51.092;7.080;2022-09-21T04:57:29;2.53;;;1.70;;
22985;SDS011;11659;51.092;7.080;2022-09-21T04:59:55;2.33;;;1.70;;
22985;SDS011;11659;51.092;7.080;2022-09-21T05:02:22;2.83;;;1.80;;
22985;SDS011;11659;51.092;7.080;2022-09-21T05:04:48;2.37;;;1.80;;
22985;SDS011;11659;51.092;7.080;2022-09-21T05:07:14;2.60;;;1.83;;
22985;SDS011;11659;51.092;7.080;2022-09-21T05:09:40;2.80;;;1.97;;
22985;SDS011;11659;51.092;7.080;2022-09-21T05:12:24;1.53;;;1.43;;
22985;SDS011;11659;51.092;7.080;2022-09-21T05:14:50;3.87;;;2.20;;
22985;SDS011;11659;51.092;7.080;2022-09-21T05:17:16;3.40;;;2.20;;
22985;SDS011;11659;51.092;7.080;2022-09-21T05:19:48;3.40;;;2.30;;
22985;SDS011;11659;51.092;7.080;2022-09-21T05:22:14;2.90;;;2.40;;
22985;SDS011;11659;51.092;7.080;2022-09-21T05:24:40;3.30;;;2.17;;
22985;SDS011;11659;51.092;7.080;2022-09-21T05:27:06;2.00;;;1.77;;
22985;SDS011;11659;51.092;7.080;2022-09-21T05:29:32;2.63;;;1.90;;
22985;SDS011;11659;51.092;7.080;2022-09-21T05:32:00;3.10;;;2.37;;
22985;SDS011;11659;51.092;7.080;2022-09-21T05:34:33;2.30;;;1.90;;
22985;SDS011;11659;51.092;7.080;2022-09-21T05:37:10;2.50;;;2.10;;
22985;SDS011;11659;51.092;7.080;2022-09-21T05:39:46;2.63;;;2.07;;
22985;SDS011;11659;51.092;7.080;2022-09-21T05:42:12;3.30;;;2.50;;
22985;SDS011;11659;51.092;7.080;2022-09-21T05:44:39;3.17;;;2.50;;
22985;SDS011;11659;51.092;7.080;2022-09-21T05:47:08;3.03;;;2.20;;
22985;SDS011;11659;51.092;7.080;2022-09-21T05:49:44;2.80;;;2.13;;
22985;SDS011;11659;51.092;7.080;2022-09-21T05:52:20;2.40;;;2.10;;
22985;SDS011;11659;51.092;7.080;2022-09-21T05:54:55;3.50;;;2.57;;
22985;SDS011;11659;51.092;7.080;2022-09-21T05:57:33;3.00;;;2.40;;
22985;SDS011;11659;51.092;7.080;2022-09-21T06:00:10;2.77;;;2.43;;
22985;SDS011;11659;51.092;7.080;2022-09-21T06:02:46;3.67;;;2.37;;
22985;SDS011;11659;51.092;7.080;2022-09-21T06:05:32;5.07;;;2.97;;
22985;SDS011;11659;51.092;7.080;2022-09-21T06:07:59;4.23;;;2.97;;
22985;SDS011;11659;51.092;7.080;2022-09-21T06:10:25;4.00;;;3.03;;
22985;SDS011;11659;51.092;7.080;2022-09-21T06:12:57;4.50;;;2.77;;
22985;SDS011;11659;51.092;7.080;2022-09-21T06:15:24;3.63;;;2.90;;
22985;SDS011;11659;51.092;7.080;2022-09-21T06:17:50;3.63;;;2.67;;
22985;SDS011;11659;51.092;7.080;2022-09-21T06:20:16;3.87;;;2.67;;
22985;SDS011;11659;51.092;7.080;2022-09-21T06:22:43;3.53;;;2.43;;
22985;SDS011;11659;51.092;7.080;2022-09-21T06:25:10;3.03;;;2.40;;
22985;SDS011;11659;51.092;7.080;2022-09-21T06:27:36;3.53;;;2.43;;
22985;SDS011;11659;51.092;7.080;2022-09-21T06:30:02;2.80;;;2.23;;
22985;SDS011;11659;51.092;7.080;2022-09-21T06:32:29;2.60;;;2.20;;
22985;SDS011;11659;51.092;7.080;2022-09-21T06:34:55;3.27;;;2.13;;
22985;SDS011;11659;51.092;7.080;2022-09-21T06:37:24;3.20;;;1.93;;
22985;SDS011;11659;51.092;7.080;2022-09-21T06:39:50;3.17;;;2.20;;
22985;SDS011;11659;51.092;7.080;2022-09-21T06:42:18;2.90;;;2.13;;
22985;SDS011;11659;51.092;7.080;2022-09-21T06:44:44;2.60;;;1.90;;
22985;SDS011;11659;51.092;7.080;2022-09-21T06:47:10;2.27;;;1.90;;
22985;SDS011;11659;51.092;7.080;2022-09-21T06:49:36;2.03;;;1.83;;
22985;SDS011;11659;51.092;7.080;2022-09-21T06:52:02;2.47;;;1.80;;
22985;SDS011;11659;51.092;7.080;2022-09-21T06:54:28;3.10;;;2.20;;
22985;SDS011;11659;51.092;7.080;2022-09-21T06:56:54;3.07;;;2.33;;
22985;SDS011;11659;51.092;7.080;2022-09-21T06:59:22;2.97;;;2.10;;
22985;SDS011;11659;51.092;7.080;2022-09-21T07:01:48;2.57;;;2.33;;
22985;SDS011;11659;51.092;7.080;2022-09-21T07:04:13;3.20;;;2.30;;
22985;SDS011;11659;51.092;7.080;2022-09-21T07:06:39;2.27;;;2.07;;
22985;SDS011;11659;51.092;7.080;2022-09-21T07:09:05;2.40;;;2.20;;
22985;SDS011;11659;51.092;7.080;2022-09-21T07:11:31;2.90;;;2.30;;
22985;SDS011;11659;51.092;7.080;2022-09-21T07:13:57;2.43;;;2.00;;
22985;SDS011;11659;51.092;7.080;2022-09-21T07:16:25;2.47;;;2.27;;
22985;SDS011;11659;51.092;7.080;2022-09-21T07:18:52;3.10;;;2.43;;
22985;SDS011;11659;51.092;7.080;2022-09-21T07:21:18;3.03;;;2.47;;
22985;SDS011;11659;51.092;7.080;2022-09-21T07:23:43;3.93;;;2.53;;
22985;SDS011;11659;51.092;7.080;2022-09-21T07:26:10;3.10;;;2.33;;
22985;SDS011;11659;51.092;7.080;2022-09-21T07:28:37;2.50;;;2.30;;
22985;SDS011;11659;51.092;7.080;2022-09-21T07:31:07;3.57;;;2.40;;
22985;SDS011;11659;51.092;7.080;2022-09-21T07:33:35;2.47;;;2.23;;
22985;SDS011;11659;51.092;7.080;2022-09-21T07:36:01;3.37;;;2.20;;
22985;SDS011;11659;51.092;7.080;2022-09-21T07:38:34;2.80;;;2.53;;
22985;SDS011;11659;51.092;7.080;2022-09-21T07:41:00;3.73;;;2.67;;
22985;SDS011;11659;51.092;7.080;2022-09-21T07:43:29;2.90;;;2.30;;
22985;SDS011;11659;51.092;7.080;2022-09-21T07:45:55;3.07;;;2.37;;
22985;SDS011;11659;51.092;7.080;2022-09-21T07:48:21;2.93;;;2.40;;
22985;SDS011;11659;51.092;7.080;2022-09-21T07:50:48;4.07;;;2.50;;
22985;SDS011;11659;51.092;7.080;2022-09-21T07:53:15;3.23;;;2.70;;
22985;SDS011;11659;51.092;7.080;2022-09-21T07:55:41;4.00;;;2.73;;
22985;SDS011;11659;51.092;7.080;2022-09-21T07:58:07;3.80;;;2.57;;
22985;SDS011;11659;51.092;7.080;2022-09-21T08:00:52;5.07;;;2.80;;
22985;SDS011;11659;51.092;7.080;2022-09-21T08:03:18;2.53;;;2.33;;
22985;SDS011;11659;51.092;7.080;2022-09-21T08:05:44;3.70;;;2.93;;
22985;SDS011;11659;51.092;7.080;2022-09-21T08:08:11;4.23;;;2.73;;
22985;SDS011;11659;51.092;7.080;2022-09-21T08:10:37;4.63;;;2.90;;
22985;SDS011;11659;51.092;7.080;2022-09-21T08:13:04;4.90;;;3.03;;
22985;SDS011;11659;51.092;7.080;2022-09-21T08:15:30;3.07;;;2.70;;
22985;SDS011;11659;51.092;7.080;2022-09-21T08:17:56;3.83;;;2.53;;
22985;SDS011;11659;51.092;7.080;2022-09-21T08:20:22;3.23;;;2.60;;
22985;SDS011;11659;51.092;7.080;2022-09-21T08:22:49;4.30;;;2.70;;
22985;SDS011;11659;51.092;7.080;2022-09-21T08:26:58;3.27;;;2.60;;
22985;SDS011;11659;51.092;7.080;2022-09-21T08:29:24;3.50;;;2.43;;
22985;SDS011;11659;51.092;7.080;2022-09-21T08:31:50;3.45;;;2.60;;
22985;SDS011;11659;51.092;7.080;2022-09-21T08:34:17;3.73;;;2.30;;
22985;SDS011;11659;51.092;7.080;2022-09-21T08:36:44;2.70;;;2.30;;
22985;SDS011;11659;51.092;7.080;2022-09-21T08:39:10;2.87;;;2.13;;
22985;SDS011;11659;51.092;7.080;2022-09-21T08:41:51;2.67;;;2.20;;
22985;SDS011;11659;51.092;7.080;2022-09-21T08:44:32;3.57;;;2.00;;
22985;SDS011;11659;51.092;7.080;2022-09-21T08:47:04;2.67;;;2.20;;
22985;SDS011;11659;51.092;7.080;2022-09-21T08:49:35;2.10;;;1.90;;
22985;SDS011;11659;51.092;7.080;2022-09-21T08:52:05;2.20;;;2.00;;
22985;SDS011;11659;51.092;7.080;2022-09-21T08:54:37;2.23;;;1.97;;
22985;SDS011;11659;51.092;7.080;2022-09-21T08:57:11;2.73;;;1.70;;
22985;SDS011;11659;51.092;7.080;2022-09-21T08:59:38;3.03;;;1.80;;
22985;SDS011;11659;51.092;7.080;2022-09-21T09:02:16;3.00;;;1.90;;
22985;SDS011;11659;51.092;7.080;2022-09-21T09:04:55;3.00;;;2.10;;
22985;SDS011;11659;51.092;7.080;2022-09-21T09:07:39;3.87;;;2.10;;
22985;SDS011;11659;51.092;7.080;2022-09-21T09:10:19;2.37;;;1.53;;
22985;SDS011;11659;51.092;7.080;2022-09-21T09:13:01;2.23;;;1.40;;
22985;SDS011;11659;51.092;7.080;2022-09-21T09:15:43;2.30;;;2.00;;
22985;SDS011;11659;51.092;7.080;2022-09-21T09:18:20;1.50;;;1.33;;
22985;SDS011;11659;51.092;7.080;2022-09-21T09:20:54;2.13;;;1.80;;
22985;SDS011;11659;51.092;7.080;2022-09-21T09:23:25;1.70;;;1.40;;
22985;SDS011;11659;51.092;7.080;2022-09-21T09:25:55;3.57;;;1.50;;
22985;SDS011;11659;51.092;7.080;2022-09-21T09:28:29;1.73;;;1.50;;
22985;SDS011;11659;51.092;7.080;2022-09-21T09:31:02;1.93;;;1.43;;
22985;SDS011;11659;51.092;7.080;2022-09-21T09:33:39;1.93;;;1.43;;
22985;SDS011;11659;51.092;7.080;2022-09-21T09:36:13;2.30;;;1.50;;
22985;SDS011;11659;51.092;7.080;2022-09-21T09:38:41;1.97;;;1.30;;
22985;SDS011;11659;51.092;7.080;2022-09-21T09:41:28;1.77;;;1.27;;
22985;SDS011;11659;51.092;7.080;2022-09-21T09:44:19;1.93;;;1.43;;
22985;SDS011;11659;51.092;7.080;2022-09-21T09:46:59;3.77;;;1.63;;
22985;SDS011;11659;51.092;7.080;2022-09-21T09:49:37;1.43;;;1.30;;
22985;SDS011;11659;51.092;7.080;2022-09-21T09:52:14;2.40;;;1.20;;
22985;SDS011;11659;51.092;7.080;2022-09-21T09:54:41;1.83;;;1.43;;
22985;SDS011;11659;51.092;7.080;2022-09-21T09:57:08;1.53;;;1.30;;
22985;SDS011;11659;51.092;7.080;2022-09-21T09:59:37;2.33;;;1.30;;
22985;SDS011;11659;51.092;7.080;2022-09-21T10:02:17;1.67;;;1.20;;
22985;SDS011;11659;51.092;7.080;2022-09-21T10:04:53;2.17;;;1.20;;
22985;SDS011;11659;51.092;7.080;2022-09-21T10:07:34;1.50;;;1.30;;
22985;SDS011;11659;51.092;7.080;2022-09-21T10:10:11;1.70;;;1.30;;
22985;SDS011;11659;51.092;7.080;2022-09-21T10:13:01;1.33;;;1.07;;
22985;SDS011;11659;51.092;7.080;2022-09-21T10:15:37;1.30;;;1.20;;
22985;SDS011;11659;51.092;7.080;2022-09-21T10:18:10;2.78;;;1.23;;
22985;SDS011;11659;51.092;7.080;2022-09-21T10:20:43;1.47;;;0.93;;
22985;SDS011;11659;51.092;7.080;2022-09-21T10:23:19;3.60;;;1.23;;
22985;SDS011;11659;51.092;7.080;2022-09-21T10:25:47;2.22;;;1.20;;
22985;SDS011;11659;51.092;7.080;2022-09-21T10:28:18;1.95;;;1.10;;
22985;SDS011;11659;51.092;7.080;2022-09-21T10:30:48;1.20;;;1.10;;
22985;SDS011;11659;51.092;7.080;2022-09-21T10:33:17;2.00;;;1.03;;
22985;SDS011;11659;51.092;7.080;2022-09-21T10:35:48;2.73;;;1.30;;
22985;SDS011;11659;51.092;7.080;2022-09-21T10:38:15;1.93;;;1.00;;
22985;SDS011;11659;51.092;7.080;2022-09-21T10:40:42;2.27;;;1.10;;
22985;SDS011;11659;51.092;7.080;2022-09-21T10:43:19;2.43;;;1.10;;
22985;SDS011;11659;51.092;7.080;2022-09-21T10:45:54;2.07;;;1.00;;
22985;SDS011;11659;51.092;7.080;2022-09-21T10:48:22;2.33;;;1.20;;
22985;SDS011;11659;51.092;7.080;2022-09-21T10:50:50;2.22;;;1.20;;
22985;SDS011;11659;51.092;7.080;2022-09-21T10:53:19;1.50;;;0.90;;
22985;SDS011;11659;51.092;7.080;2022-09-21T10:55:51;1.43;;;1.00;;
22985;SDS011;11659;51.092;7.080;2022-09-21T10:58:21;1.70;;;1.20;;
22985;SDS011;11659;51.092;7.080;2022-09-21T11:00:49;1.10;;;0.70;;
22985;SDS011;11659;51.092;7.080;2022-09-21T11:03:38;1.35;;;1.02;;
22985;SDS011;11659;51.092;7.080;2022-09-21T11:06:14;1.47;;;1.10;;
22985;SDS011;11659;51.092;7.080;2022-09-21T11:08:44;2.50;;;1.30;;
22985;SDS011;11659;51.092;7.080;2022-09-21T11:11:18;1.73;;;1.10;;
22985;SDS011;11659;51.092;7.080;2022-09-21T11:14:15;2.80;;;1.30;;
22985;SDS011;11659;51.092;7.080;2022-09-21T11:16:52;2.17;;;0.80;;
22985;SDS011;11659;51.092;7.080;2022-09-21T11:19:24;3.00;;;1.10;;
22985;SDS011;11659;51.092;7.080;2022-09-21T11:21:58;2.67;;;1.20;;
22985;SDS011;11659;51.092;7.080;2022-09-21T11:24:31;4.03;;;0.97;;
22985;SDS011;11659;51.092;7.080;2022-09-21T11:27:06;1.20;;;1.07;;
22985;SDS011;11659;51.092;7.080;2022-09-21T11:29:38;1.63;;;1.00;;
22985;SDS011;11659;51.092;7.080;2022-09-21T11:32:19;3.30;;;1.70;;
22985;SDS011;11659;51.092;7.080;2022-09-21T11:35:07;2.40;;;1.33;;
22985;SDS011;11659;51.092;7.080;2022-09-21T11:37:49;1.90;;;1.00;;
22985;SDS011;11659;51.092;7.080;2022-09-21T11:40:27;2.87;;;1.13;;
22985;SDS011;11659;51.092;7.080;2022-09-21T11:43:04;1.40;;;0.80;;
22985;SDS011;11659;51.092;7.080;2022-09-21T11:45:46;2.23;;;0.97;;
22985;SDS011;11659;51.092;7.080;2022-09-21T11:48:28;1.20;;;0.80;;
22985;SDS011;11659;51.092;7.080;2022-09-21T11:51:06;0.70;;;0.57;;
22985;SDS011;11659;51.092;7.080;2022-09-21T11:53:47;1.40;;;0.80;;
22985;SDS011;11659;51.092;7.080;2022-09-21T11:56:37;0.83;;;0.60;;
22985;SDS011;11659;51.092;7.080;2022-09-21T11:59:17;1.83;;;0.83;;
22985;SDS011;11659;51.092;7.080;2022-09-21T12:02:08;0.73;;;0.50;;
22985;SDS011;11659;51.092;7.080;2022-09-21T12:04:51;2.70;;;0.77;;
22985;SDS011;11659;51.092;7.080;2022-09-21T12:07:28;1.37;;;0.90;;
22985;SDS011;11659;51.092;7.080;2022-09-21T12:10:05;1.23;;;0.70;;
22985;SDS011;11659;51.092;7.080;2022-09-21T12:12:56;1.80;;;0.90;;
22985;SDS011;11659;51.092;7.080;2022-09-21T12:15:32;0.97;;;0.57;;
22985;SDS011;11659;51.092;7.080;2022-09-21T12:18:14;1.57;;;0.80;;
22985;SDS011;11659;51.092;7.080;2022-09-21T12:20:49;0.70;;;0.70;;
22985;SDS011;11659;51.092;7.080;2022-09-21T12:23:25;0.77;;;0.60;;
22985;SDS011;11659;51.092;7.080;2022-09-21T12:25:57;1.58;;;0.95;;
22985;SDS011;11659;51.092;7.080;2022-09-21T12:28:26;0.70;;;0.47;;
22985;SDS011;11659;51.092;7.080;2022-09-21T12:30:58;0.80;;;0.60;;
22985;SDS011;11659;51.092;7.080;2022-09-21T12:33:30;1.20;;;0.67;;
22985;SDS011;11659;51.092;7.080;2022-09-21T12:36:02;1.60;;;0.60;;
22985;SDS011;11659;51.092;7.080;2022-09-21T12:38:37;1.23;;;0.73;;
22985;SDS011;11659;51.092;7.080;2022-09-21T12:41:09;1.00;;;0.53;;
22985;SDS011;11659;51.092;7.080;2022-09-21T12:43:41;1.67;;;0.60;;
22985;SDS011;11659;51.092;7.080;2022-09-21T12:46:11;1.42;;;0.82;;
22985;SDS011;11659;51.092;7.080;2022-09-21T12:48:40;1.40;;;0.77;;
22985;SDS011;11659;51.092;7.080;2022-09-21T12:51:09;2.33;;;0.95;;
22985;SDS011;11659;51.092;7.080;2022-09-21T12:53:42;1.17;;;0.77;;
22985;SDS011;11659;51.092;7.080;2022-09-21T12:56:14;2.90;;;0.90;;
22985;SDS011;11659;51.092;7.080;2022-09-21T12:58:49;1.30;;;0.80;;
22985;SDS011;11659;51.092;7.080;2022-09-21T13:01:29;1.90;;;1.13;;
22985;SDS011;11659;51.092;7.080;2022-09-21T13:04:04;0.90;;;0.80;;
22985;SDS011;11659;51.092;7.080;2022-09-21T13:06:47;1.40;;;0.80;;
22985;SDS011;11659;51.092;7.080;2022-09-21T13:09:28;1.20;;;0.80;;
22985;SDS011;11659;51.092;7.080;2022-09-21T13:11:58;1.93;;;0.80;;
22985;SDS011;11659;51.092;7.080;2022-09-21T13:14:26;1.53;;;0.80;;
22985;SDS011;11659;51.092;7.080;2022-09-21T13:16:55;1.70;;;0.63;;
22985;SDS011;11659;51.092;7.080;2022-09-21T13:19:23;1.50;;;0.80;;
22985;SDS011;11659;51.092;7.080;2022-09-21T13:22:08;1.10;;;0.60;;
22985;SDS011;11659;51.092;7.080;2022-09-21T13:24:40;1.93;;;1.10;;
22985;SDS011;11659;51.092;7.080;2022-09-21T13:27:10;0.70;;;0.60;;
22985;SDS011;11659;51.092;7.080;2022-09-21T13:29:38;1.23;;;0.83;;
22985;SDS011;11659;51.092;7.080;2022-09-21T13:32:19;1.13;;;0.67;;
22985;SDS011;11659;51.092;7.080;2022-09-21T13:34:47;0.77;;;0.60;;
22985;SDS011;11659;51.092;7.080;2022-09-21T13:43:22;1.10;;;0.70;;
22985;SDS011;11659;51.092;7.080;2022-09-21T13:46:09;1.20;;;0.80;;
22985;SDS011;11659;51.092;7.080;2022-09-21T13:49:14;0.90;;;0.70;;
22985;SDS011;11659;51.092;7.080;2022-09-21T13:51:57;0.87;;;0.63;;
22985;SDS011;11659;51.092;7.080;2022-09-21T13:54:25;0.87;;;0.63;;
22985;SDS011;11659;51.092;7.080;2022-09-21T13:56:57;3.90;;;1.00;;
22985;SDS011;11659;51.092;7.080;2022-09-21T13:59:30;1.33;;;0.60;;
22985;SDS011;11659;51.092;7.080;2022-09-21T14:01:59;0.87;;;0.70;;
22985;SDS011;11659;51.092;7.080;2022-09-21T14:04:27;1.57;;;0.90;;
22985;SDS011;11659;51.092;7.080;2022-09-21T14:06:56;0.77;;;0.53;;
22985;SDS011;11659;51.092;7.080;2022-09-21T14:09:27;1.17;;;0.80;;
22985;SDS011;11659;51.092;7.080;2022-09-21T14:11:56;1.23;;;0.77;;
22985;SDS011;11659;51.092;7.080;2022-09-21T14:14:26;1.80;;;0.90;;
22985;SDS011;11659;51.092;7.080;2022-09-21T14:16:57;1.07;;;0.63;;
22985;SDS011;11659;51.092;7.080;2022-09-21T14:22:33;0.93;;;0.50;;
22985;SDS011;11659;51.092;7.080;2022-09-21T14:25:21;1.27;;;0.80;;
22985;SDS011;11659;51.092;7.080;2022-09-21T14:27:53;1.23;;;0.53;;
22985;SDS011;11659;51.092;7.080;2022-09-21T14:30:31;2.43;;;0.77;;
22985;SDS011;11659;51.092;7.080;2022-09-21T14:33:19;1.87;;;0.70;;
22985;SDS011;11659;51.092;7.080;2022-09-21T14:35:51;1.17;;;0.70;;
22985;SDS011;11659;51.092;7.080;2022-09-21T14:38:19;1.80;;;0.67;;
22985;SDS011;11659;51.092;7.080;2022-09-21T14:40:49;0.77;;;0.60;;
22985;SDS011;11659;51.092;7.080;2022-09-21T14:43:19;0.80;;;0.50;;
22985;SDS011;11659;51.092;7.080;2022-09-21T14:45:55;0.87;;;0.57;;
22985;SDS011;11659;51.092;7.080;2022-09-21T14:48:36;1.23;;;0.60;;
22985;SDS011;11659;51.092;7.080;2022-09-21T14:51:08;1.30;;;0.57;;
22985;SDS011;11659;51.092;7.080;2022-09-21T14:53:57;0.70;;;0.50;;
22985;SDS011;11659;51.092;7.080;2022-09-21T14:56:37;1.07;;;0.60;;
22985;SDS011;11659;51.092;7.080;2022-09-21T14:59:16;1.55;;;0.60;;
22985;SDS011;11659;51.092;7.080;2022-09-21T15:01:58;1.10;;;1.00;;
22985;SDS011;11659;51.092;7.080;2022-09-21T15:04:31;1.27;;;1.07;;
22985;SDS011;11659;51.092;7.080;2022-09-21T15:07:29;1.47;;;1.20;;
22985;SDS011;11659;51.092;7.080;2022-09-21T15:10:23;1.00;;;0.90;;
22985;SDS011;11659;51.092;7.080;2022-09-21T15:13:14;1.30;;;0.83;;
22985;SDS011;11659;51.092;7.080;2022-09-21T15:15:49;1.57;;;0.80;;
22985;SDS011;11659;51.092;7.080;2022-09-21T15:18:39;1.83;;;0.73;;
22985;SDS011;11659;51.092;7.080;2022-09-21T15:21:15;0.90;;;0.53;;
22985;SDS011;11659;51.092;7.080;2022-09-21T15:23:46;0.97;;;0.80;;
22985;SDS011;11659;51.092;7.080;2022-09-21T15:26:14;1.30;;;0.80;;